createdAt,value
2018-04-01T00:00:11.984Z,76.20
2018-04-01T00:02:37.577Z,76.03
2018-04-01T00:05:03.180Z,76.12
2018-04-01T00:07:28.796Z,76.09
2018-04-01T00:09:54.405Z,75.77
2018-04-01T00:12:20.065Z,75.73
2018-04-01T00:14:45.685Z,75.46
2018-04-01T00:17:11.344Z,75.55
2018-04-01T00:19:36.976Z,75.65
2018-04-01T00:22:02.612Z,75.48
2018-04-01T00:24:28.252Z,75.40
2018-04-01T00:26:53.884Z,75.59
2018-04-01T00:29:19.492Z,76.23
2018-04-01T00:31:45.087Z,76.44
2018-04-01T00:34:10.689Z,76.28
2018-04-01T00:36:36.318Z,76.28
2018-04-01T00:39:01.984Z,75.73
2018-04-01T00:41:27.609Z,75.32
2018-04-01T00:43:53.320Z,75.49
2018-04-01T00:46:18.917Z,75.40
2018-04-01T00:48:44.528Z,74.77
2018-04-01T00:51:10.524Z,75.04
2018-04-01T00:53:36.124Z,74.85
2018-04-01T00:56:01.736Z,74.85
2018-04-01T00:58:27.360Z,75.18
2018-04-01T01:00:52.973Z,75.04
2018-04-01T01:03:18.559Z,75.00
2018-04-01T01:05:44.163Z,74.68
2018-04-01T01:08:09.750Z,74.93
2018-04-01T01:10:35.341Z,74.81
2018-04-01T01:13:00.933Z,74.63
2018-04-01T01:15:26.539Z,74.48
2018-04-01T01:17:52.167Z,74.46
2018-04-01T01:20:17.760Z,75.01
2018-04-01T01:22:43.396Z,75.01
2018-04-01T01:25:09.004Z,74.57
2018-04-01T01:27:34.599Z,74.83
2018-04-01T01:30:00.208Z,75.10
2018-04-01T01:32:25.812Z,74.88
2018-04-01T01:34:51.400Z,75.51
2018-04-01T01:37:17.040Z,75.60
2018-04-01T01:39:42.628Z,75.58
2018-04-01T01:42:08.269Z,75.62
2018-04-01T01:44:33.884Z,75.39
2018-04-01T01:46:59.532Z,75.21
2018-04-01T01:49:25.161Z,75.57
2018-04-01T01:51:50.801Z,75.78
2018-04-01T01:54:16.401Z,75.35
2018-04-01T01:56:42.017Z,75.17
2018-04-01T01:59:07.651Z,75.21
2018-04-01T02:01:33.260Z,74.77
2018-04-01T02:03:58.860Z,74.67
2018-04-01T02:06:24.456Z,74.63
2018-04-01T02:08:50.059Z,74.72
2018-04-01T02:11:15.697Z,74.87
2018-04-01T02:13:41.310Z,74.74
2018-04-01T02:16:06.907Z,75.06
2018-04-01T02:18:32.529Z,75.16
2018-04-01T02:20:58.133Z,75.44
2018-04-01T02:23:23.848Z,75.19
2018-04-01T02:25:49.466Z,74.93
2018-04-01T02:28:15.089Z,75.10
2018-04-01T02:30:40.714Z,75.16
2018-04-01T02:33:06.326Z,75.62
2018-04-01T02:35:31.937Z,75.79
2018-04-01T02:37:57.562Z,75.36
2018-04-01T02:40:23.186Z,75.62
2018-04-01T02:42:48.776Z,75.72
2018-04-01T02:45:14.400Z,75.77
2018-04-01T02:47:40.001Z,75.78
2018-04-01T02:50:05.746Z,75.87
2018-04-01T02:52:31.361Z,75.76
2018-04-01T02:54:56.977Z,75.74
2018-04-01T02:57:22.578Z,75.84
2018-04-01T02:59:48.193Z,75.45
2018-04-01T03:02:13.790Z,75.88
2018-04-01T03:04:39.437Z,75.96
2018-04-01T03:07:05.016Z,75.82
2018-04-01T03:09:30.629Z,75.60
2018-04-01T03:11:56.257Z,75.54
2018-04-01T03:14:21.861Z,75.48
2018-04-01T03:16:47.504Z,75.38
2018-04-01T03:19:13.115Z,75.45
2018-04-01T03:21:38.740Z,75.09
2018-04-01T03:24:04.369Z,75.48
2018-04-01T03:26:29.991Z,75.35
2018-04-01T03:28:55.590Z,75.78
2018-04-01T03:31:21.224Z,75.81
2018-04-01T03:33:46.808Z,75.23
2018-04-01T03:36:12.929Z,75.42
2018-04-01T03:38:38.536Z,75.49
2018-04-01T03:41:04.132Z,75.75
2018-04-01T03:43:29.727Z,75.75
2018-04-01T03:45:55.340Z,75.72
2018-04-01T03:48:20.937Z,75.54
2018-04-01T03:50:46.588Z,75.42
2018-04-01T03:53:12.204Z,76.02
2018-04-01T03:55:37.809Z,76.19
2018-04-01T03:58:03.404Z,75.91
2018-04-01T04:00:29.013Z,75.93
2018-04-01T04:02:54.633Z,76.27
2018-04-01T04:05:20.249Z,76.52
2018-04-01T04:07:45.884Z,76.16
2018-04-01T04:10:11.511Z,75.98
2018-04-01T04:12:37.108Z,75.75
2018-04-01T04:15:02.729Z,75.53
2018-04-01T04:17:28.330Z,74.66
2018-04-01T04:19:53.932Z,74.85
2018-04-01T04:22:19.775Z,75.24
2018-04-01T04:24:45.400Z,75.26
2018-04-01T04:27:11.008Z,75.01
2018-04-01T04:29:36.625Z,74.77
2018-04-01T04:32:02.233Z,74.82
2018-04-01T04:34:27.832Z,74.52
2018-04-01T04:36:53.457Z,75.00
2018-04-01T04:39:19.044Z,75.36
2018-04-01T04:41:44.636Z,75.42
2018-04-01T04:44:10.277Z,75.77
2018-04-01T04:46:35.865Z,75.77
2018-04-01T04:49:01.511Z,75.49
2018-04-01T04:51:27.785Z,75.64
2018-04-01T04:53:53.440Z,75.85
2018-04-01T04:56:19.054Z,75.92
2018-04-01T04:58:44.676Z,75.65
2018-04-01T05:01:10.264Z,75.70
2018-04-01T05:03:35.872Z,75.40
2018-04-01T05:06:01.472Z,75.74
2018-04-01T05:08:27.125Z,75.85
2018-04-01T05:10:52.696Z,75.72
2018-04-01T05:13:18.302Z,75.73
2018-04-01T05:15:43.905Z,75.53
2018-04-01T05:18:09.564Z,75.36
2018-04-01T05:20:35.555Z,75.32
2018-04-01T05:23:01.156Z,75.47
2018-04-01T05:25:26.788Z,75.70
2018-04-01T05:27:52.381Z,75.32
2018-04-01T05:30:17.984Z,74.94
2018-04-01T05:32:43.634Z,75.09
2018-04-01T05:35:09.257Z,75.02
2018-04-01T05:37:34.853Z,74.62
2018-04-01T05:40:00.471Z,74.86
2018-04-01T05:42:26.061Z,75.05
2018-04-01T05:44:51.696Z,74.96
2018-04-01T05:47:17.314Z,74.33
2018-04-01T05:49:42.955Z,74.48
2018-04-01T05:52:09.102Z,74.08
2018-04-01T05:54:34.705Z,74.07
2018-04-01T05:57:00.312Z,73.91
2018-04-01T05:59:25.945Z,73.80
2018-04-01T06:01:51.535Z,74.25
2018-04-01T06:04:17.140Z,74.35
2018-04-01T06:06:42.739Z,74.23
2018-04-01T06:09:08.537Z,73.84
2018-04-01T06:11:34.184Z,73.95
2018-04-01T06:13:59.794Z,74.64
2018-04-01T06:16:25.397Z,74.92
2018-04-01T06:18:51.054Z,73.96
2018-04-01T06:21:17.026Z,73.96
2018-04-01T06:23:42.641Z,73.73
2018-04-01T06:26:08.263Z,73.39
2018-04-01T06:28:33.875Z,73.56
2018-04-01T06:30:59.488Z,73.77
2018-04-01T06:33:25.105Z,73.24
2018-04-01T06:35:50.759Z,72.77
2018-04-01T06:38:16.513Z,72.62
2018-04-01T06:40:42.120Z,72.78
2018-04-01T06:43:07.719Z,72.76
2018-04-01T06:45:33.309Z,72.99
2018-04-01T06:47:58.912Z,72.72
2018-04-01T06:50:24.513Z,71.88
2018-04-01T06:52:50.174Z,71.86
2018-04-01T06:55:15.851Z,71.85
2018-04-01T06:57:41.447Z,71.56
2018-04-01T07:00:07.271Z,72.16
2018-04-01T07:02:32.903Z,71.70
2018-04-01T07:04:58.508Z,71.72
2018-04-01T07:07:24.110Z,71.81
2018-04-01T07:09:49.736Z,71.74
2018-04-01T07:12:15.339Z,71.54
2018-04-01T07:14:40.949Z,71.06
2018-04-01T07:17:06.783Z,70.89
2018-04-01T07:19:32.410Z,70.83
2018-04-01T07:21:58.300Z,71.23
2018-04-01T07:24:23.912Z,71.58
2018-04-01T07:26:49.534Z,71.54
2018-04-01T07:29:15.136Z,71.08
2018-04-01T07:31:40.749Z,70.69
2018-04-01T07:34:06.346Z,70.96
2018-04-01T07:36:31.951Z,70.30
2018-04-01T07:38:57.609Z,70.31
2018-04-01T07:41:23.216Z,70.82
2018-04-01T07:43:48.804Z,71.35
2018-04-01T07:46:14.436Z,72.02
2018-04-01T07:48:40.032Z,71.49
2018-04-01T07:51:05.637Z,71.36
2018-04-01T07:53:31.264Z,71.49
2018-04-01T07:55:57.193Z,71.50
2018-04-01T07:58:22.796Z,71.77
2018-04-01T08:00:48.418Z,71.90
2018-04-01T08:03:14.008Z,71.92
2018-04-01T08:05:39.604Z,70.85
2018-04-01T08:08:05.259Z,70.87
2018-04-01T08:10:30.830Z,71.13
2018-04-01T08:12:56.433Z,71.25
2018-04-01T08:15:22.048Z,71.13
2018-04-01T08:17:47.668Z,70.97
2018-04-01T08:20:13.278Z,71.82
2018-04-01T08:22:38.999Z,72.16
2018-04-01T08:25:04.611Z,72.04
2018-04-01T08:27:30.237Z,72.15
2018-04-01T08:29:55.831Z,71.79
2018-04-01T08:32:21.441Z,71.53
2018-04-01T08:34:47.052Z,71.46
2018-04-01T08:37:12.674Z,71.11
2018-04-01T08:39:38.288Z,71.30
2018-04-01T08:42:03.909Z,70.63
2018-04-01T08:44:29.519Z,70.13
2018-04-01T08:46:55.121Z,70.43
2018-04-01T08:49:20.748Z,70.45
2018-04-01T08:51:46.350Z,69.80
2018-04-01T08:54:12.042Z,68.87
2018-04-01T08:56:37.723Z,68.70
2018-04-01T08:59:03.305Z,69.09
2018-04-01T09:01:28.909Z,69.41
2018-04-01T09:03:54.537Z,69.21
2018-04-01T09:06:20.212Z,69.20
2018-04-01T09:08:45.813Z,69.00
2018-04-01T09:11:11.441Z,68.42
2018-04-01T09:13:37.047Z,68.17
2018-04-01T09:16:02.648Z,68.01
2018-04-01T09:18:28.260Z,67.98
2018-04-01T09:20:54.112Z,66.58
2018-04-01T09:23:19.709Z,67.26
2018-04-01T09:25:45.389Z,67.42
2018-04-01T09:28:10.998Z,66.86
2018-04-01T09:30:36.620Z,68.41
2018-04-01T09:33:02.228Z,68.80
2018-04-01T09:35:27.864Z,68.39
2018-04-01T09:37:53.539Z,68.35
2018-04-01T09:40:19.170Z,67.44
2018-04-01T09:42:44.789Z,67.77
2018-04-01T09:45:10.403Z,68.01
2018-04-01T09:47:36.017Z,68.91
2018-04-01T09:50:01.627Z,68.70
2018-04-01T09:52:27.243Z,68.95
2018-04-01T09:54:52.908Z,68.84
2018-04-01T09:57:18.508Z,68.01
2018-04-01T09:59:44.103Z,66.41
2018-04-01T10:02:09.786Z,64.75
2018-04-01T10:04:35.449Z,64.60
2018-04-01T10:07:01.105Z,63.52
2018-04-01T10:09:26.767Z,62.95
2018-04-01T10:11:52.417Z,63.13
2018-04-01T10:14:18.073Z,62.69
2018-04-01T10:16:43.720Z,62.16
2018-04-01T10:19:09.407Z,63.01
2018-04-01T10:21:35.157Z,63.89
2018-04-01T10:24:00.874Z,64.41
2018-04-01T10:26:26.545Z,64.03
2018-04-01T10:28:52.212Z,64.63
2018-04-01T10:31:17.876Z,64.17
2018-04-01T10:33:43.560Z,65.17
2018-04-01T10:36:09.219Z,65.25
2018-04-01T10:38:35.245Z,64.71
2018-04-01T10:41:00.889Z,63.97
2018-04-01T10:43:26.611Z,63.92
2018-04-01T10:45:52.256Z,64.01
2018-04-01T10:48:17.920Z,63.88
2018-04-01T10:50:43.590Z,63.83
2018-04-01T10:53:09.282Z,63.82
2018-04-01T10:55:34.901Z,63.21
2018-04-01T10:58:01.021Z,62.71
2018-04-01T11:00:26.669Z,61.88
2018-04-01T11:02:52.273Z,62.38
2018-04-01T11:05:17.881Z,62.77
2018-04-01T11:07:43.493Z,62.77
2018-04-01T11:10:09.100Z,62.72
2018-04-01T11:12:34.708Z,62.77
2018-04-01T11:15:00.394Z,62.59
2018-04-01T11:17:26.006Z,62.74
2018-04-01T11:19:51.641Z,62.74
2018-04-01T11:22:17.296Z,62.76
2018-04-01T11:24:42.927Z,62.70
2018-04-01T11:27:08.704Z,62.54
2018-04-01T11:29:34.316Z,63.71
2018-04-01T11:31:59.909Z,63.57
2018-04-01T11:34:25.512Z,63.94
2018-04-01T11:36:51.122Z,63.77
2018-04-01T11:39:16.737Z,63.61
2018-04-01T11:41:42.364Z,63.70
2018-04-01T11:44:07.974Z,62.90
2018-04-01T11:46:33.573Z,62.64
2018-04-01T11:48:59.189Z,62.61
2018-04-01T11:51:25.152Z,61.99
2018-04-01T11:53:50.772Z,61.48
2018-04-01T11:56:16.400Z,61.90
2018-04-01T11:58:41.984Z,60.67
2018-04-01T12:01:07.577Z,60.43
2018-04-01T12:03:33.193Z,59.88
2018-04-01T12:05:58.790Z,60.60
2018-04-01T12:08:24.466Z,60.08
2018-04-01T12:10:50.096Z,60.60
2018-04-01T12:13:15.697Z,60.63
2018-04-01T12:15:41.305Z,60.69
2018-04-01T12:18:06.946Z,60.92
2018-04-01T12:20:32.573Z,61.26
2018-04-01T12:22:58.192Z,60.96
2018-04-01T12:25:23.810Z,60.52
2018-04-01T12:27:49.412Z,60.62
2018-04-01T12:30:15.236Z,60.35
2018-04-01T12:32:40.856Z,60.62
2018-04-01T12:35:06.460Z,60.98
2018-04-01T12:37:32.080Z,61.36
2018-04-01T12:39:57.802Z,62.22
2018-04-01T12:42:23.417Z,61.95
2018-04-01T12:44:49.032Z,62.01
2018-04-01T12:47:14.644Z,61.06
2018-04-01T12:49:40.231Z,60.71
2018-04-01T12:52:05.872Z,61.30
2018-04-01T12:54:31.479Z,60.56
2018-04-01T12:56:57.327Z,59.61
2018-04-01T12:59:22.963Z,57.62
2018-04-01T13:01:48.592Z,57.73
2018-04-01T13:04:14.185Z,58.38
2018-04-01T13:06:39.800Z,56.88
2018-04-01T13:09:05.400Z,57.46
2018-04-01T13:11:31.016Z,56.09
2018-04-01T13:13:56.632Z,54.91
2018-04-01T13:16:22.234Z,53.67
2018-04-01T13:18:47.884Z,54.57
2018-04-01T13:21:13.472Z,53.45
2018-04-01T13:23:39.075Z,54.45
2018-04-01T13:26:04.745Z,54.51
2018-04-01T13:28:30.368Z,53.69
2018-04-01T13:30:55.973Z,53.99
2018-04-01T13:33:21.581Z,53.97
2018-04-01T13:35:47.212Z,54.48
2018-04-01T13:38:12.817Z,54.58
2018-04-01T13:40:38.413Z,54.53
2018-04-01T13:43:04.008Z,54.40
2018-04-01T13:45:29.627Z,55.32
2018-04-01T13:47:55.237Z,55.46
2018-04-01T13:50:20.860Z,54.91
2018-04-01T13:52:46.464Z,54.16
2018-04-01T13:55:12.083Z,54.92
2018-04-01T13:57:37.997Z,54.62
2018-04-01T14:00:03.610Z,54.79
2018-04-01T14:02:29.220Z,54.68
2018-04-01T14:04:54.825Z,54.68
2018-04-01T14:07:20.444Z,54.46
2018-04-01T14:09:46.061Z,55.09
2018-04-01T14:12:11.722Z,55.19
2018-04-01T14:14:37.396Z,55.05
2018-04-01T14:17:03.017Z,54.98
2018-04-01T14:19:28.614Z,54.42
2018-04-01T14:21:55.102Z,54.34
2018-04-01T14:24:20.716Z,54.46
2018-04-01T14:26:46.324Z,54.24
2018-04-01T14:29:11.991Z,55.92
2018-04-01T14:31:37.619Z,56.52
2018-04-01T14:34:03.224Z,56.36
2018-04-01T14:36:28.934Z,56.63
2018-04-01T14:38:54.509Z,56.69
2018-04-01T14:41:20.101Z,56.33
2018-04-01T14:43:45.707Z,56.43
2018-04-01T14:46:11.342Z,56.15
2018-04-01T14:48:36.941Z,56.62
2018-04-01T14:51:02.540Z,57.01
2018-04-01T14:53:28.174Z,56.60
2018-04-01T14:55:53.791Z,55.81
2018-04-01T14:58:19.669Z,55.94
2018-04-01T15:00:45.283Z,54.91
2018-04-01T15:03:10.890Z,54.30
2018-04-01T15:05:36.500Z,53.70
2018-04-01T15:08:02.183Z,54.33
2018-04-01T15:10:27.846Z,54.34
2018-04-01T15:12:53.451Z,53.47
2018-04-01T15:15:19.041Z,52.98
2018-04-01T15:17:44.639Z,50.49
2018-04-01T15:20:10.263Z,50.10
2018-04-01T15:22:35.868Z,50.24
2018-04-01T15:25:01.482Z,49.67
2018-04-01T15:27:27.100Z,48.86
2018-04-01T15:29:52.688Z,48.78
2018-04-01T15:32:18.780Z,49.26
2018-04-01T15:34:44.401Z,49.12
2018-04-01T15:37:10.036Z,48.58
2018-04-01T15:39:35.663Z,48.27
2018-04-01T15:42:01.260Z,47.82
2018-04-01T15:44:26.880Z,48.50
2018-04-01T15:46:52.504Z,49.84
2018-04-01T15:49:18.111Z,50.20
2018-04-01T15:51:43.719Z,49.54
2018-04-01T15:54:09.348Z,50.25
2018-04-01T15:56:34.946Z,49.76
2018-04-01T15:59:00.952Z,48.88
2018-04-01T16:01:26.573Z,49.09
2018-04-01T16:03:52.173Z,49.53
2018-04-01T16:06:17.783Z,50.25
2018-04-01T16:08:43.408Z,50.67
2018-04-01T16:11:09.733Z,50.02
2018-04-01T16:13:35.343Z,49.47
2018-04-01T16:16:01.007Z,49.75
2018-04-01T16:18:26.613Z,50.01
2018-04-01T16:20:52.206Z,49.62
2018-04-01T16:23:17.921Z,50.41
2018-04-01T16:25:43.535Z,50.34
2018-04-01T16:28:09.136Z,51.05
2018-04-01T16:30:34.763Z,50.86
2018-04-01T16:33:00.377Z,51.29
2018-04-01T16:35:25.985Z,51.25
2018-04-01T16:37:51.589Z,50.70
2018-04-01T16:40:17.184Z,50.57
2018-04-01T16:42:42.804Z,51.27
2018-04-01T16:45:08.405Z,51.61
2018-04-01T16:47:34.003Z,52.67
2018-04-01T16:49:59.632Z,53.23
2018-04-01T16:52:25.244Z,53.44
2018-04-01T16:54:51.121Z,53.60
2018-04-01T16:57:16.736Z,53.88
2018-04-01T16:59:42.360Z,54.09
2018-04-01T17:02:07.962Z,54.39
2018-04-01T17:04:33.589Z,54.76
2018-04-01T17:06:59.192Z,55.00
2018-04-01T17:09:24.962Z,55.05
2018-04-01T17:11:50.424Z,55.23
2018-04-01T17:14:16.024Z,55.43
2018-04-01T17:16:41.640Z,54.75
2018-04-01T17:19:07.253Z,55.19
2018-04-01T17:21:32.864Z,55.06
2018-04-01T17:23:58.488Z,55.38
2018-04-01T17:26:24.104Z,55.45
2018-04-01T17:28:50.012Z,55.29
2018-04-01T17:31:15.636Z,55.67
2018-04-01T17:33:41.252Z,56.03
2018-04-01T17:36:06.873Z,56.22
2018-04-01T17:38:32.476Z,56.61
2018-04-01T17:40:58.083Z,57.43
2018-04-01T17:43:24.107Z,58.36
2018-04-01T17:45:49.717Z,58.63
2018-04-01T17:48:15.338Z,58.64
2018-04-01T17:50:40.962Z,58.94
2018-04-01T17:53:07.446Z,59.27
2018-04-01T17:55:33.055Z,59.63
2018-04-01T17:57:58.689Z,59.77
2018-04-01T18:00:24.296Z,60.14
2018-04-01T18:02:49.896Z,60.56
2018-04-01T18:05:15.509Z,60.89
2018-04-01T18:07:41.097Z,61.15
2018-04-01T18:10:06.692Z,61.36
2018-04-01T18:12:32.329Z,61.46
2018-04-01T18:14:57.956Z,61.65
2018-04-01T18:17:23.554Z,61.70
2018-04-01T18:19:49.551Z,61.86
2018-04-01T18:22:15.169Z,62.17
2018-04-01T18:24:40.833Z,62.39
2018-04-01T18:27:06.477Z,62.55
2018-04-01T18:29:32.094Z,62.75
2018-04-01T18:31:57.802Z,62.79
2018-04-01T18:34:23.383Z,63.00
2018-04-01T18:36:49.136Z,63.35
2018-04-01T18:39:14.736Z,63.58
2018-04-01T18:41:40.324Z,63.80
2018-04-01T18:44:05.922Z,63.81
2018-04-01T18:46:31.547Z,63.76
2018-04-01T18:48:57.144Z,63.90
2018-04-01T18:51:22.815Z,63.98
2018-04-01T18:53:48.492Z,63.99
2018-04-01T18:56:14.080Z,64.06
2018-04-01T18:58:39.697Z,64.18
2018-04-01T19:01:05.361Z,64.31
2018-04-01T19:03:31.464Z,64.28
2018-04-01T19:05:57.064Z,64.28
2018-04-01T19:08:22.672Z,64.31
2018-04-01T19:10:48.476Z,64.24
2018-04-01T19:13:14.096Z,64.32
2018-04-01T19:15:39.716Z,64.57
2018-04-01T19:18:05.385Z,64.73
2018-04-01T19:20:31.052Z,64.77
2018-04-01T19:22:56.753Z,64.93
2018-04-01T19:25:22.443Z,64.98
2018-04-01T19:27:48.537Z,65.01
2018-04-01T19:30:14.211Z,64.94
2018-04-01T19:32:39.872Z,65.01
2018-04-01T19:35:05.521Z,65.18
2018-04-01T19:37:31.272Z,65.08
2018-04-01T19:39:56.952Z,65.09
2018-04-01T19:42:22.640Z,64.85
2018-04-01T19:44:48.342Z,64.93
2018-04-01T19:47:14.020Z,64.89
2018-04-01T19:49:39.684Z,64.95
2018-04-01T19:52:05.355Z,64.98
2018-04-01T19:54:31.011Z,64.99
2018-04-01T19:56:56.728Z,65.10
2018-04-01T19:59:22.411Z,65.26
2018-04-01T20:01:48.104Z,65.16
2018-04-01T20:04:13.768Z,65.23
2018-04-01T20:06:39.452Z,65.37
2018-04-01T20:09:05.124Z,65.50
2018-04-01T20:11:30.819Z,65.50
2018-04-01T20:13:56.547Z,65.64
2018-04-01T20:16:22.174Z,65.66
2018-04-01T20:18:47.837Z,65.81
2018-04-01T20:21:13.549Z,65.74
2018-04-01T20:23:39.209Z,66.01
2018-04-01T20:26:05.105Z,66.11
2018-04-01T20:28:30.757Z,66.24
2018-04-01T20:30:56.432Z,66.28
2018-04-01T20:33:22.100Z,66.16
2018-04-01T20:35:47.779Z,66.15
2018-04-01T20:38:13.441Z,66.25
2018-04-01T20:40:39.114Z,66.46
2018-04-01T20:43:05.447Z,66.73
2018-04-01T20:45:31.124Z,66.82
2018-04-01T20:47:56.820Z,67.08
2018-04-01T20:50:22.471Z,67.11
2018-04-01T20:52:48.152Z,67.31
2018-04-01T20:55:13.845Z,67.52
2018-04-01T20:57:39.521Z,67.79
2018-04-01T21:00:05.508Z,68.09
2018-04-01T21:02:31.208Z,68.18
2018-04-01T21:04:56.876Z,68.29
2018-04-01T21:07:22.584Z,68.24
2018-04-01T21:09:48.269Z,68.45
2018-04-01T21:12:13.932Z,68.56
2018-04-01T21:14:39.600Z,68.62
2018-04-01T21:17:05.274Z,68.82
2018-04-01T21:19:30.924Z,68.87
2018-04-01T21:21:56.589Z,68.81
2018-04-01T21:24:22.273Z,68.74
2018-04-01T21:26:47.931Z,68.78
2018-04-01T21:29:13.583Z,68.74
2018-04-01T21:31:39.684Z,68.73
2018-04-01T21:34:05.363Z,68.80
2018-04-01T21:36:31.028Z,68.91
2018-04-01T21:38:56.696Z,69.02
2018-04-01T21:41:22.366Z,69.15
2018-04-01T21:43:48.037Z,69.31
2018-04-01T21:46:13.717Z,69.38
2018-04-01T21:48:39.393Z,69.62
2018-04-01T21:51:05.084Z,69.75
2018-04-01T21:53:30.771Z,69.83
2018-04-01T21:55:56.925Z,69.84
2018-04-01T21:58:22.709Z,69.77
2018-04-01T22:00:48.393Z,69.90
2018-04-01T22:03:14.064Z,70.04
2018-04-01T22:05:39.757Z,70.14
2018-04-01T22:08:05.430Z,70.35
2018-04-01T22:10:31.076Z,70.49
2018-04-01T22:12:56.772Z,70.51
2018-04-01T22:15:22.417Z,70.61
2018-04-01T22:17:48.065Z,70.73
2018-04-01T22:20:13.772Z,70.76
2018-04-01T22:22:45.457Z,71.05
2018-04-01T22:25:11.464Z,71.25
2018-04-01T22:27:37.129Z,71.51
2018-04-01T22:30:02.793Z,71.76
2018-04-01T22:32:28.468Z,72.00
2018-04-01T22:34:54.125Z,72.10
2018-04-01T22:37:19.811Z,72.12
2018-04-01T22:39:45.462Z,72.14
2018-04-01T22:42:11.171Z,71.93
2018-04-01T22:44:36.856Z,71.86
2018-04-01T22:47:02.508Z,71.83
2018-04-01T22:49:28.199Z,71.88
2018-04-01T22:51:53.893Z,72.09
2018-04-01T22:54:19.567Z,72.24
2018-04-01T22:56:45.577Z,72.25
2018-04-01T22:59:11.248Z,72.30
2018-04-01T23:01:36.904Z,72.29
2018-04-01T23:04:02.572Z,72.24
2018-04-01T23:06:28.247Z,72.09
2018-04-01T23:08:53.906Z,72.04
2018-04-01T23:11:19.560Z,72.09
2018-04-01T23:13:45.248Z,72.17
2018-04-01T23:16:10.897Z,72.29
2018-04-01T23:18:36.550Z,72.40
2018-04-01T23:21:02.230Z,72.24
2018-04-01T23:23:27.900Z,72.26
2018-04-01T23:25:53.890Z,72.12
2018-04-01T23:28:19.574Z,71.95
2018-04-01T23:30:45.237Z,71.79
2018-04-01T23:33:10.897Z,71.79
2018-04-01T23:35:36.569Z,71.66
2018-04-01T23:38:02.228Z,71.62
2018-04-01T23:40:27.881Z,71.59
2018-04-01T23:42:53.540Z,71.53
2018-04-01T23:45:19.200Z,71.37
2018-04-01T23:47:44.888Z,71.18
2018-04-01T23:50:10.558Z,71.01
2018-04-01T23:52:36.232Z,70.90
2018-04-01T23:55:02.271Z,70.61
2018-04-01T23:57:27.960Z,70.79
2018-04-01T23:59:53.617Z,70.58
